Cypress, IL (62923)

10:23 AM CDT on July 29, 2016 (GMT -0500)
Hidden River Farms | | Change Station

Elev 466 ft 37.47 °N, 89.11 °W | Updated 26 seconds ago

Mostly Cloudy
Mostly Cloudy
76.1 °F
Feels Like 76 °F
N
4.9
Wind Variable Wind from South
Gusts 7.0 mph

Today
High -- | Low -- °F
--% Chance of Precip.
Yesterday
High -- | Low -- °F
Precip. -- in
Pressure 29.96 in
Visibility 10.0 miles
Clouds Mostly Cloudy 1900 ft
Heat Index 76 °F
Dew Point 74 °F
Humidity 94%
Rainfall 0.00 in
Snow Depth Not available.
5:58 AM 8:06 PM
Waning Crescent, 21% visible
METAR KM30 291515Z AUTO 23006KT 10SM BKN019 26/23 A2996 RMK AO2 T02630230
Pressure 29.96 in
Visibility 10.0 miles
Clouds Mostly Cloudy 1900 ft
Heat Index 76 °F
Dew Point 74 °F
Humidity 94%
Rainfall 0.00 in
Snow Depth Not available.
5:58 AM 8:06 PM
Waning Crescent, 21% visible
METAR KM30 291515Z AUTO 23006KT 10SM BKN019 26/23 A2996 RMK AO2 T02630230

10-Day Weather Forecast

Almanac

Astronomy

Jul. 29, 2016 Rise Set
Actual Time
Civil Twilight
Nautical Twilight
Astronomical Twilight
Moon
Length of Visible Light
Length of Day
Tomorrow will be .
, % of the Moon is Illuminated

Today's Extremes

State Highs State Lows

Community

WunderPhotos

Upload Photos

1,928,346 photos uploaded!

WunderBlog® & News

Nearby

Air Quality

  Air Quality AQ Index Pollutant
Not available.

Snow Depth

Station Depth Elevation

Earthquake Activity

City Distance Mag. Time & Date
Minimum magnitude displayed is 2.5.

Coastal Water Temperatures

Place Temperature

Stations

Nearby Weather Stations

Station Location Temp. Windchill Dew Point Humidity Wind Precip. Elev Updated Type
                   

Watches & Warnings

There are currently no watches in effect.